This is the latest recevied weather packets stored in our database for station/object KG7KID-5. If no packets are shown the sender has not sent any weather packets the latest 10 day(s).
| Time | Temp. | Humidity | Pressure | Rain* | Wind** | Luminosity | Snow |
|---|---|---|---|---|---|---|---|
| 1778081223 | 16.11° C | 37% | 932.2 hPa | 0 mm | - | - | - |
| 1778080923 | 15.56° C | 37% | 932.2 hPa | 0 mm | - | - | - |
| 1778080748 | 15° C | 38% | 932.2 hPa | 0 mm | - | - | - |
| 1778080622 | 15° C | 38% | 932.2 hPa | 0 mm | - | - | - |
| 1778080432 | 15° C | 39% | 932.3 hPa | 0 mm | - | - | - |
| 1778080322 | 15° C | 39% | 932.3 hPa | 0 mm | - | - | - |
| 1778080023 | 15° C | 39% | 932.2 hPa | 0 mm | - | - | - |
| 1778079724 | 15° C | 39% | 932.3 hPa | 0 mm | - | - | - |
| 1778079422 | 14.44° C | 39% | 932.4 hPa | 0 mm | - | - | - |
| 1778078823 | 14.44° C | 39% | 932.4 hPa | 0 mm | - | - | - |
| 1778078684 | 13.89° C | 41% | 932.3 hPa | 0 mm | - | - | - |
| 1778078522 | 13.89° C | 41% | 932.3 hPa | 0 mm | - | - | - |
| 1778077923 | 13.33° C | 43% | 932.3 hPa | 0 mm | - | - | - |
| 1778076230 | 11.11° C | 47% | 932.4 hPa | 0 mm | - | - | - |
| 1778076122 | 11.11° C | 47% | 932.4 hPa | 0 mm | - | - | - |
| 1778075521 | 10.56° C | 50% | 932.4 hPa | 0 mm | - | - | - |
| 1778075222 | 10° C | 52% | 932.3 hPa | 0 mm | - | - | - |
| 1778074694 | 10° C | 49% | 932.3 hPa | 0 mm | - | - | - |
| 1778074622 | 10° C | 49% | 932.3 hPa | 0 mm | - | - | - |
| 1778074390 | 9.44° C | 51% | 932.2 hPa | 0 mm | - | - | - |
| 1778074321 | 9.44° C | 51% | 932.2 hPa | 0 mm | - | - | - |
| 1778074099 | 9.44° C | 52% | 932 hPa | 0 mm | - | - | - |
| 1778074022 | 9.44° C | 52% | 932 hPa | 0 mm | - | - | - |
| 1778055634 | 11.11° C | 47% | 929.7 hPa | 0 mm | - | - | - |
| 1778055288 | 11.11° C | 47% | 929.7 hPa | 0 mm | - | - | - |
* Rain latest hour (hover to see other rain measurements)
** Current wind speed in m/s (hover to see current wind gust speed)